MA60 weather

St Luke's Hospital Heliport
Middleborough, Massachusetts, United States

Public forecast

Using degrees Fahrenheit for public forecast. Weather courtesy of forecast.io.

METAR (pilot weather report)

Closest report is Taunton Municipal King Field, 4.7 nm (8.7 km) WSW. Retrieved 2019/07/18 02:16 UTC (0 seconds ago):

KTAN 180216Z AUTO 00000KT 8SM SCT005 24/22 A2991 RMK AO2 T02390222

TAF (pilot weather forecast)

Forecast is more than 12 hours old.

Closest forecast is Cape Cod Coast Guard Air Station, 22.6 nm (41.9 km) SE. Retrieved 2019/07/17 00:24 UTC (1 day ago):

TAF KFMH 172322Z 1800/1824 24008KT P6SM -SHRA VCTS OVC004CB FM180200 25006KT 4SM BR OVC004 FM181000 03003KT 2SM BR VCSH OVC010 FM181100 07003KT 3SM -SHRA BR OVC015 FM181700 10005KT 3SM -SHRA BR VCSH OVC008 FM182000 07005KT 3SM BR VCSH OVC008